sensor_id;sensor_type;location;lat;lon;timestamp;temperature;humidity
11320;DHT22;5715;48.234;14.320;2023-03-21T00:01:00;7.20;99.90
11320;DHT22;5715;48.234;14.320;2023-03-21T00:03:51;7.10;99.90
11320;DHT22;5715;48.234;14.320;2023-03-21T00:06:39;7.10;99.90
11320;DHT22;5715;48.234;14.320;2023-03-21T00:09:26;7.00;99.90
11320;DHT22;5715;48.234;14.320;2023-03-21T00:12:14;6.90;99.90
11320;DHT22;5715;48.234;14.320;2023-03-21T00:15:07;6.90;99.90
11320;DHT22;5715;48.234;14.320;2023-03-21T00:17:57;6.80;99.90
11320;DHT22;5715;48.234;14.320;2023-03-21T00:21:01;6.70;99.90
11320;DHT22;5715;48.234;14.320;2023-03-21T00:24:11;6.60;99.90
11320;DHT22;5715;48.234;14.320;2023-03-21T00:26:59;6.40;99.90
11320;DHT22;5715;48.234;14.320;2023-03-21T00:30:08;6.30;99.90
11320;DHT22;5715;48.234;14.320;2023-03-21T00:32:58;6.20;99.90
11320;DHT22;5715;48.234;14.320;2023-03-21T00:35:52;6.20;99.90
11320;DHT22;5715;48.234;14.320;2023-03-21T00:38:51;6.10;99.90
11320;DHT22;5715;48.234;14.320;2023-03-21T00:41:39;6.10;99.90
11320;DHT22;5715;48.234;14.320;2023-03-21T00:44:29;6.20;99.90
11320;DHT22;5715;48.234;14.320;2023-03-21T00:47:23;6.20;99.90
11320;DHT22;5715;48.234;14.320;2023-03-21T00:50:13;6.30;99.90
11320;DHT22;5715;48.234;14.320;2023-03-21T00:53:05;6.30;99.90
11320;DHT22;5715;48.234;14.320;2023-03-21T00:55:53;6.30;99.90
11320;DHT22;5715;48.234;14.320;2023-03-21T00:58:44;6.40;99.90
11320;DHT22;5715;48.234;14.320;2023-03-21T01:01:32;6.40;99.90
11320;DHT22;5715;48.234;14.320;2023-03-21T01:04:20;6.40;99.90
11320;DHT22;5715;48.234;14.320;2023-03-21T01:07:12;6.40;99.90
11320;DHT22;5715;48.234;14.320;2023-03-21T01:10:00;6.30;99.90
11320;DHT22;5715;48.234;14.320;2023-03-21T01:12:47;6.30;99.90
11320;DHT22;5715;48.234;14.320;2023-03-21T01:15:36;6.30;99.90
11320;DHT22;5715;48.234;14.320;2023-03-21T01:18:36;6.20;99.90
11320;DHT22;5715;48.234;14.320;2023-03-21T01:21:28;6.20;99.90
11320;DHT22;5715;48.234;14.320;2023-03-21T01:24:15;6.20;99.90
11320;DHT22;5715;48.234;14.320;2023-03-21T01:27:03;6.30;99.90
11320;DHT22;5715;48.234;14.320;2023-03-21T01:29:51;6.30;99.90
11320;DHT22;5715;48.234;14.320;2023-03-21T01:32:41;6.40;99.90
11320;DHT22;5715;48.234;14.320;2023-03-21T01:35:35;6.40;99.90
11320;DHT22;5715;48.234;14.320;2023-03-21T01:38:36;6.50;99.90
11320;DHT22;5715;48.234;14.320;2023-03-21T01:41:30;6.50;99.90
11320;DHT22;5715;48.234;14.320;2023-03-21T01:44:30;6.50;99.90
11320;DHT22;5715;48.234;14.320;2023-03-21T01:47:18;6.50;99.90
11320;DHT22;5715;48.234;14.320;2023-03-21T01:50:06;6.40;99.90
11320;DHT22;5715;48.234;14.320;2023-03-21T01:52:56;6.40;99.90
11320;DHT22;5715;48.234;14.320;2023-03-21T01:55:44;6.40;99.90
11320;DHT22;5715;48.234;14.320;2023-03-21T01:58:35;6.30;99.90
11320;DHT22;5715;48.234;14.320;2023-03-21T02:01:23;6.30;99.90
11320;DHT22;5715;48.234;14.320;2023-03-21T02:04:11;6.30;99.90
11320;DHT22;5715;48.234;14.320;2023-03-21T02:07:12;6.30;99.90
11320;DHT22;5715;48.234;14.320;2023-03-21T02:10:07;6.20;99.90
11320;DHT22;5715;48.234;14.320;2023-03-21T02:13:04;6.20;99.90
11320;DHT22;5715;48.234;14.320;2023-03-21T02:16:04;6.20;99.90
11320;DHT22;5715;48.234;14.320;2023-03-21T02:25:35;6.10;99.90
11320;DHT22;5715;48.234;14.320;2023-03-21T02:28:53;6.10;99.90
11320;DHT22;5715;48.234;14.320;2023-03-21T02:35:52;6.00;99.90
11320;DHT22;5715;48.234;14.320;2023-03-21T02:46:16;6.00;99.90
11320;DHT22;5715;48.234;14.320;2023-03-21T02:49:21;6.10;99.90
11320;DHT22;5715;48.234;14.320;2023-03-21T02:52:17;6.10;99.90
11320;DHT22;5715;48.234;14.320;2023-03-21T02:55:26;6.10;99.90
11320;DHT22;5715;48.234;14.320;2023-03-21T02:58:20;6.10;99.90
11320;DHT22;5715;48.234;14.320;2023-03-21T03:01:10;6.10;99.90
11320;DHT22;5715;48.234;14.320;2023-03-21T03:03:58;6.20;99.90
11320;DHT22;5715;48.234;14.320;2023-03-21T03:07:18;6.20;99.90
11320;DHT22;5715;48.234;14.320;2023-03-21T03:10:37;6.20;99.90
11320;DHT22;5715;48.234;14.320;2023-03-21T03:23:53;5.80;99.90
11320;DHT22;5715;48.234;14.320;2023-03-21T03:26:50;5.70;99.90
11320;DHT22;5715;48.234;14.320;2023-03-21T03:29:45;5.70;99.90
11320;DHT22;5715;48.234;14.320;2023-03-21T03:32:47;5.60;99.90
11320;DHT22;5715;48.234;14.320;2023-03-21T03:35:40;5.60;99.90
11320;DHT22;5715;48.234;14.320;2023-03-21T03:38:28;5.50;99.90
11320;DHT22;5715;48.234;14.320;2023-03-21T03:41:23;5.40;99.90
11320;DHT22;5715;48.234;14.320;2023-03-21T03:44:13;5.40;99.90
11320;DHT22;5715;48.234;14.320;2023-03-21T03:47:07;5.30;99.90
11320;DHT22;5715;48.234;14.320;2023-03-21T03:53:36;5.20;99.90
11320;DHT22;5715;48.234;14.320;2023-03-21T03:56:30;5.20;99.90
11320;DHT22;5715;48.234;14.320;2023-03-21T03:59:18;5.10;99.90
11320;DHT22;5715;48.234;14.320;2023-03-21T04:02:11;5.00;99.90
11320;DHT22;5715;48.234;14.320;2023-03-21T04:05:04;4.90;99.90
11320;DHT22;5715;48.234;14.320;2023-03-21T04:07:52;4.80;99.90
11320;DHT22;5715;48.234;14.320;2023-03-21T04:10:41;4.80;99.90
11320;DHT22;5715;48.234;14.320;2023-03-21T04:13:30;4.70;99.90
11320;DHT22;5715;48.234;14.320;2023-03-21T04:16:18;4.60;99.90
11320;DHT22;5715;48.234;14.320;2023-03-21T04:19:08;4.60;99.90
11320;DHT22;5715;48.234;14.320;2023-03-21T04:21:56;4.50;99.90
11320;DHT22;5715;48.234;14.320;2023-03-21T04:24:44;4.50;99.90
11320;DHT22;5715;48.234;14.320;2023-03-21T04:27:35;4.50;99.90
11320;DHT22;5715;48.234;14.320;2023-03-21T04:30:23;4.40;99.90
11320;DHT22;5715;48.234;14.320;2023-03-21T04:33:11;4.30;99.90
11320;DHT22;5715;48.234;14.320;2023-03-21T04:35:58;4.30;99.90
11320;DHT22;5715;48.234;14.320;2023-03-21T04:38:46;4.20;99.90
11320;DHT22;5715;48.234;14.320;2023-03-21T04:41:34;4.10;99.90
11320;DHT22;5715;48.234;14.320;2023-03-21T04:44:23;4.00;99.90
11320;DHT22;5715;48.234;14.320;2023-03-21T04:47:14;4.00;99.90
11320;DHT22;5715;48.234;14.320;2023-03-21T04:50:02;3.90;99.90
11320;DHT22;5715;48.234;14.320;2023-03-21T04:52:53;3.90;99.90
11320;DHT22;5715;48.234;14.320;2023-03-21T04:55:41;3.90;99.90
11320;DHT22;5715;48.234;14.320;2023-03-21T04:58:29;4.00;99.90
11320;DHT22;5715;48.234;14.320;2023-03-21T05:01:17;4.00;99.90
11320;DHT22;5715;48.234;14.320;2023-03-21T05:04:08;4.00;99.90
11320;DHT22;5715;48.234;14.320;2023-03-21T05:06:57;4.10;99.90
11320;DHT22;5715;48.234;14.320;2023-03-21T05:09:45;4.10;99.90
11320;DHT22;5715;48.234;14.320;2023-03-21T05:12:33;4.10;99.90
11320;DHT22;5715;48.234;14.320;2023-03-21T05:15:21;4.10;99.90
11320;DHT22;5715;48.234;14.320;2023-03-21T05:18:08;4.00;99.90
11320;DHT22;5715;48.234;14.320;2023-03-21T05:20:59;4.00;99.90
11320;DHT22;5715;48.234;14.320;2023-03-21T05:23:50;4.00;99.90
11320;DHT22;5715;48.234;14.320;2023-03-21T05:26:42;3.90;99.90
11320;DHT22;5715;48.234;14.320;2023-03-21T05:29:36;4.10;99.90
11320;DHT22;5715;48.234;14.320;2023-03-21T05:32:24;4.20;99.90
11320;DHT22;5715;48.234;14.320;2023-03-21T05:35:12;4.30;99.90
11320;DHT22;5715;48.234;14.320;2023-03-21T05:37:59;4.40;99.90
11320;DHT22;5715;48.234;14.320;2023-03-21T05:40:49;4.50;99.90
11320;DHT22;5715;48.234;14.320;2023-03-21T05:43:37;4.70;99.90
11320;DHT22;5715;48.234;14.320;2023-03-21T05:46:25;4.80;99.90
11320;DHT22;5715;48.234;14.320;2023-03-21T05:49:13;5.00;99.90
11320;DHT22;5715;48.234;14.320;2023-03-21T05:52:00;5.20;99.90
11320;DHT22;5715;48.234;14.320;2023-03-21T05:54:48;5.40;99.90
11320;DHT22;5715;48.234;14.320;2023-03-21T05:57:36;5.60;99.90
11320;DHT22;5715;48.234;14.320;2023-03-21T06:00:27;5.90;99.90
11320;DHT22;5715;48.234;14.320;2023-03-21T06:03:16;6.10;99.90
11320;DHT22;5715;48.234;14.320;2023-03-21T06:06:04;6.20;99.90
11320;DHT22;5715;48.234;14.320;2023-03-21T06:08:52;6.50;99.90
11320;DHT22;5715;48.234;14.320;2023-03-21T06:11:45;6.80;99.90
11320;DHT22;5715;48.234;14.320;2023-03-21T06:14:34;7.20;99.90
11320;DHT22;5715;48.234;14.320;2023-03-21T06:17:22;7.30;99.90
11320;DHT22;5715;48.234;14.320;2023-03-21T06:20:10;7.40;99.90
11320;DHT22;5715;48.234;14.320;2023-03-21T06:22:58;7.50;99.90
11320;DHT22;5715;48.234;14.320;2023-03-21T06:25:47;7.60;99.90
11320;DHT22;5715;48.234;14.320;2023-03-21T06:28:37;7.70;99.90
11320;DHT22;5715;48.234;14.320;2023-03-21T06:31:25;7.90;99.90
11320;DHT22;5715;48.234;14.320;2023-03-21T06:34:13;8.10;99.90
11320;DHT22;5715;48.234;14.320;2023-03-21T06:37:00;8.30;99.90
11320;DHT22;5715;48.234;14.320;2023-03-21T06:39:50;8.50;99.90
11320;DHT22;5715;48.234;14.320;2023-03-21T06:42:37;8.70;99.90
11320;DHT22;5715;48.234;14.320;2023-03-21T06:45:25;9.00;99.90
11320;DHT22;5715;48.234;14.320;2023-03-21T06:48:13;9.20;99.90
11320;DHT22;5715;48.234;14.320;2023-03-21T06:51:03;9.30;99.90
11320;DHT22;5715;48.234;14.320;2023-03-21T06:53:51;9.60;99.90
11320;DHT22;5715;48.234;14.320;2023-03-21T06:56:39;9.80;99.90
11320;DHT22;5715;48.234;14.320;2023-03-21T06:59:28;10.00;99.90
11320;DHT22;5715;48.234;14.320;2023-03-21T07:02:16;10.10;99.90
11320;DHT22;5715;48.234;14.320;2023-03-21T07:05:03;10.30;99.90
11320;DHT22;5715;48.234;14.320;2023-03-21T07:07:52;10.30;99.90
11320;DHT22;5715;48.234;14.320;2023-03-21T07:10:41;10.30;99.90
11320;DHT22;5715;48.234;14.320;2023-03-21T07:13:31;10.50;99.90
11320;DHT22;5715;48.234;14.320;2023-03-21T07:16:20;10.50;99.90
11320;DHT22;5715;48.234;14.320;2023-03-21T07:19:11;10.50;99.90
11320;DHT22;5715;48.234;14.320;2023-03-21T07:21:59;10.50;99.90
11320;DHT22;5715;48.234;14.320;2023-03-21T07:24:47;10.50;99.90
11320;DHT22;5715;48.234;14.320;2023-03-21T07:27:50;10.60;99.90
11320;DHT22;5715;48.234;14.320;2023-03-21T07:30:42;10.70;99.90
11320;DHT22;5715;48.234;14.320;2023-03-21T07:33:31;10.80;99.90
11320;DHT22;5715;48.234;14.320;2023-03-21T07:36:20;10.80;99.90
11320;DHT22;5715;48.234;14.320;2023-03-21T07:39:08;10.80;99.90
11320;DHT22;5715;48.234;14.320;2023-03-21T07:41:55;10.70;99.90
11320;DHT22;5715;48.234;14.320;2023-03-21T07:44:45;10.70;99.90
11320;DHT22;5715;48.234;14.320;2023-03-21T07:47:34;10.70;99.90
11320;DHT22;5715;48.234;14.320;2023-03-21T07:50:22;10.70;99.90
11320;DHT22;5715;48.234;14.320;2023-03-21T07:53:09;10.80;99.90
11320;DHT22;5715;48.234;14.320;2023-03-21T07:55:57;10.80;99.90
11320;DHT22;5715;48.234;14.320;2023-03-21T07:58:45;11.10;99.90
11320;DHT22;5715;48.234;14.320;2023-03-21T08:01:33;11.10;99.90
11320;DHT22;5715;48.234;14.320;2023-03-21T08:04:21;11.10;99.90
11320;DHT22;5715;48.234;14.320;2023-03-21T08:07:10;11.10;99.90
11320;DHT22;5715;48.234;14.320;2023-03-21T08:10:03;11.20;99.90
11320;DHT22;5715;48.234;14.320;2023-03-21T08:12:51;11.30;99.90
11320;DHT22;5715;48.234;14.320;2023-03-21T08:15:40;11.60;99.90
11320;DHT22;5715;48.234;14.320;2023-03-21T08:18:28;11.70;99.90
11320;DHT22;5715;48.234;14.320;2023-03-21T08:21:16;11.90;99.90
11320;DHT22;5715;48.234;14.320;2023-03-21T08:24:04;12.00;99.90
11320;DHT22;5715;48.234;14.320;2023-03-21T08:26:53;12.20;99.90
11320;DHT22;5715;48.234;14.320;2023-03-21T08:29:41;12.20;99.90
11320;DHT22;5715;48.234;14.320;2023-03-21T08:32:28;12.30;99.90
11320;DHT22;5715;48.234;14.320;2023-03-21T08:35:17;12.30;99.90
11320;DHT22;5715;48.234;14.320;2023-03-21T08:38:06;12.30;99.90
11320;DHT22;5715;48.234;14.320;2023-03-21T08:40:55;12.40;99.90
11320;DHT22;5715;48.234;14.320;2023-03-21T08:43:49;12.50;99.90
11320;DHT22;5715;48.234;14.320;2023-03-21T08:46:36;12.50;99.90
11320;DHT22;5715;48.234;14.320;2023-03-21T08:49:25;12.70;99.90
11320;DHT22;5715;48.234;14.320;2023-03-21T08:52:12;12.80;99.90
11320;DHT22;5715;48.234;14.320;2023-03-21T08:55:00;13.00;99.90
11320;DHT22;5715;48.234;14.320;2023-03-21T08:57:48;13.00;99.90
11320;DHT22;5715;48.234;14.320;2023-03-21T09:00:36;13.20;99.90
11320;DHT22;5715;48.234;14.320;2023-03-21T09:03:23;13.30;99.90
11320;DHT22;5715;48.234;14.320;2023-03-21T09:06:13;13.50;99.90
11320;DHT22;5715;48.234;14.320;2023-03-21T09:09:02;13.70;99.90
11320;DHT22;5715;48.234;14.320;2023-03-21T09:11:53;13.80;99.90
11320;DHT22;5715;48.234;14.320;2023-03-21T09:14:41;13.70;99.90
11320;DHT22;5715;48.234;14.320;2023-03-21T09:17:32;13.80;99.90
11320;DHT22;5715;48.234;14.320;2023-03-21T09:20:22;14.00;99.90
11320;DHT22;5715;48.234;14.320;2023-03-21T09:23:19;14.10;99.90
11320;DHT22;5715;48.234;14.320;2023-03-21T09:26:08;14.10;99.90
11320;DHT22;5715;48.234;14.320;2023-03-21T09:28:59;14.00;99.90
11320;DHT22;5715;48.234;14.320;2023-03-21T09:31:47;14.00;99.90
11320;DHT22;5715;48.234;14.320;2023-03-21T09:34:35;14.20;99.90
11320;DHT22;5715;48.234;14.320;2023-03-21T09:37:27;14.10;99.90
11320;DHT22;5715;48.234;14.320;2023-03-21T09:47:19;14.50;99.90
11320;DHT22;5715;48.234;14.320;2023-03-21T09:53:28;14.60;99.90
11320;DHT22;5715;48.234;14.320;2023-03-21T09:56:21;14.70;99.90
11320;DHT22;5715;48.234;14.320;2023-03-21T09:59:22;14.80;99.90
11320;DHT22;5715;48.234;14.320;2023-03-21T10:02:49;14.80;99.90
11320;DHT22;5715;48.234;14.320;2023-03-21T10:05:43;14.90;99.90
11320;DHT22;5715;48.234;14.320;2023-03-21T10:08:35;15.10;99.90
11320;DHT22;5715;48.234;14.320;2023-03-21T10:11:31;15.40;99.90
11320;DHT22;5715;48.234;14.320;2023-03-21T10:14:40;15.50;99.90
11320;DHT22;5715;48.234;14.320;2023-03-21T10:17:34;15.20;99.90
11320;DHT22;5715;48.234;14.320;2023-03-21T10:20:33;15.00;99.90
11320;DHT22;5715;48.234;14.320;2023-03-21T10:23:27;15.10;99.90
11320;DHT22;5715;48.234;14.320;2023-03-21T10:26:18;15.30;99.90
11320;DHT22;5715;48.234;14.320;2023-03-21T10:29:11;15.20;99.90
11320;DHT22;5715;48.234;14.320;2023-03-21T10:32:06;14.90;99.90
11320;DHT22;5715;48.234;14.320;2023-03-21T10:34:58;15.00;99.90
11320;DHT22;5715;48.234;14.320;2023-03-21T10:37:47;14.70;99.90
11320;DHT22;5715;48.234;14.320;2023-03-21T10:40:35;15.10;99.90
11320;DHT22;5715;48.234;14.320;2023-03-21T10:46:18;15.50;99.90
11320;DHT22;5715;48.234;14.320;2023-03-21T10:49:14;15.70;99.90
11320;DHT22;5715;48.234;14.320;2023-03-21T10:52:09;16.00;99.90
11320;DHT22;5715;48.234;14.320;2023-03-21T10:58:17;16.10;99.90
11320;DHT22;5715;48.234;14.320;2023-03-21T11:01:29;16.10;99.90
11320;DHT22;5715;48.234;14.320;2023-03-21T11:04:28;16.00;99.90
11320;DHT22;5715;48.234;14.320;2023-03-21T11:07:16;15.90;99.90
11320;DHT22;5715;48.234;14.320;2023-03-21T11:10:25;16.00;99.90
11320;DHT22;5715;48.234;14.320;2023-03-21T11:13:33;16.20;99.90
11320;DHT22;5715;48.234;14.320;2023-03-21T11:16:30;16.50;99.90
11320;DHT22;5715;48.234;14.320;2023-03-21T11:19:31;16.70;99.90
11320;DHT22;5715;48.234;14.320;2023-03-21T11:22:24;16.80;99.90
11320;DHT22;5715;48.234;14.320;2023-03-21T11:25:36;16.60;99.90
11320;DHT22;5715;48.234;14.320;2023-03-21T11:28:33;16.70;99.90
11320;DHT22;5715;48.234;14.320;2023-03-21T11:31:40;16.60;99.90
11320;DHT22;5715;48.234;14.320;2023-03-21T11:34:38;16.70;99.90
11320;DHT22;5715;48.234;14.320;2023-03-21T11:37:56;16.70;99.90
11320;DHT22;5715;48.234;14.320;2023-03-21T11:40:53;16.80;99.90
11320;DHT22;5715;48.234;14.320;2023-03-21T11:43:51;16.90;99.90
11320;DHT22;5715;48.234;14.320;2023-03-21T11:46:40;16.90;99.90
11320;DHT22;5715;48.234;14.320;2023-03-21T11:49:28;17.00;99.90
11320;DHT22;5715;48.234;14.320;2023-03-21T11:52:30;17.00;99.90
11320;DHT22;5715;48.234;14.320;2023-03-21T11:55:35;17.00;99.90
11320;DHT22;5715;48.234;14.320;2023-03-21T11:59:15;17.20;99.90
11320;DHT22;5715;48.234;14.320;2023-03-21T12:05:51;17.30;99.90
11320;DHT22;5715;48.234;14.320;2023-03-21T12:15:42;17.50;99.90
11320;DHT22;5715;48.234;14.320;2023-03-21T12:19:47;17.50;99.90
11320;DHT22;5715;48.234;14.320;2023-03-21T12:22:22;17.20;99.90
11320;DHT22;5715;48.234;14.320;2023-03-21T12:25:26;16.90;99.90
11320;DHT22;5715;48.234;14.320;2023-03-21T12:31:29;16.80;99.90
11320;DHT22;5715;48.234;14.320;2023-03-21T12:44:10;17.40;99.90
11320;DHT22;5715;48.234;14.320;2023-03-21T12:47:06;17.20;99.90
11320;DHT22;5715;48.234;14.320;2023-03-21T12:50:27;17.10;99.90
11320;DHT22;5715;48.234;14.320;2023-03-21T12:53:34;16.70;99.90
11320;DHT22;5715;48.234;14.320;2023-03-21T13:00:04;17.00;99.90
11320;DHT22;5715;48.234;14.320;2023-03-21T13:03:01;17.20;99.90
11320;DHT22;5715;48.234;14.320;2023-03-21T13:05:58;17.20;99.90
11320;DHT22;5715;48.234;14.320;2023-03-21T13:08:51;17.40;99.90
11320;DHT22;5715;48.234;14.320;2023-03-21T13:19:18;17.30;99.90
11320;DHT22;5715;48.234;14.320;2023-03-21T13:25:21;17.40;99.90
11320;DHT22;5715;48.234;14.320;2023-03-21T13:28:25;17.50;99.90
11320;DHT22;5715;48.234;14.320;2023-03-21T13:31:26;17.60;99.90
11320;DHT22;5715;48.234;14.320;2023-03-21T13:34:25;17.50;99.90
11320;DHT22;5715;48.234;14.320;2023-03-21T13:37:16;17.60;99.90
11320;DHT22;5715;48.234;14.320;2023-03-21T13:40:11;17.50;99.90
11320;DHT22;5715;48.234;14.320;2023-03-21T13:44:15;17.40;99.90
11320;DHT22;5715;48.234;14.320;2023-03-21T13:47:00;17.60;99.90
11320;DHT22;5715;48.234;14.320;2023-03-21T13:59:02;17.30;99.90
11320;DHT22;5715;48.234;14.320;2023-03-21T14:05:20;17.50;99.90
11320;DHT22;5715;48.234;14.320;2023-03-21T14:08:15;17.70;99.90
11320;DHT22;5715;48.234;14.320;2023-03-21T14:11:18;17.60;99.90
11320;DHT22;5715;48.234;14.320;2023-03-21T14:14:08;17.40;99.90
11320;DHT22;5715;48.234;14.320;2023-03-21T14:16:56;17.20;99.90
11320;DHT22;5715;48.234;14.320;2023-03-21T14:19:44;17.40;99.90
11320;DHT22;5715;48.234;14.320;2023-03-21T14:22:32;17.30;99.90
11320;DHT22;5715;48.234;14.320;2023-03-21T14:25:21;17.30;99.90
11320;DHT22;5715;48.234;14.320;2023-03-21T14:28:23;17.30;99.90
11320;DHT22;5715;48.234;14.320;2023-03-21T14:31:20;17.20;99.90
11320;DHT22;5715;48.234;14.320;2023-03-21T14:34:09;17.20;99.90
11320;DHT22;5715;48.234;14.320;2023-03-21T14:36:57;17.20;99.90
11320;DHT22;5715;48.234;14.320;2023-03-21T14:39:56;17.30;99.90
11320;DHT22;5715;48.234;14.320;2023-03-21T14:42:49;17.40;99.90
11320;DHT22;5715;48.234;14.320;2023-03-21T14:45:38;17.50;99.90
11320;DHT22;5715;48.234;14.320;2023-03-21T14:48:32;17.60;99.90
11320;DHT22;5715;48.234;14.320;2023-03-21T14:51:21;17.60;99.90
11320;DHT22;5715;48.234;14.320;2023-03-21T14:54:13;17.50;99.90
11320;DHT22;5715;48.234;14.320;2023-03-21T14:57:07;17.50;99.90
11320;DHT22;5715;48.234;14.320;2023-03-21T15:00:03;17.40;99.90
11320;DHT22;5715;48.234;14.320;2023-03-21T15:02:58;17.40;99.90
11320;DHT22;5715;48.234;14.320;2023-03-21T15:05:47;17.30;99.90
11320;DHT22;5715;48.234;14.320;2023-03-21T15:08:34;17.30;99.90
11320;DHT22;5715;48.234;14.320;2023-03-21T15:11:32;17.30;99.90
11320;DHT22;5715;48.234;14.320;2023-03-21T15:14:28;17.20;99.90
11320;DHT22;5715;48.234;14.320;2023-03-21T15:17:21;17.10;99.90
11320;DHT22;5715;48.234;14.320;2023-03-21T15:20:15;17.10;99.90
11320;DHT22;5715;48.234;14.320;2023-03-21T15:23:07;17.10;99.90
11320;DHT22;5715;48.234;14.320;2023-03-21T15:26:18;17.00;99.90
11320;DHT22;5715;48.234;14.320;2023-03-21T15:29:10;17.00;99.90
11320;DHT22;5715;48.234;14.320;2023-03-21T15:32:04;17.00;99.90
11320;DHT22;5715;48.234;14.320;2023-03-21T15:35:03;17.00;99.90
11320;DHT22;5715;48.234;14.320;2023-03-21T15:37:57;16.90;99.90
11320;DHT22;5715;48.234;14.320;2023-03-21T15:40:45;16.90;99.90
11320;DHT22;5715;48.234;14.320;2023-03-21T15:43:37;16.80;99.90
11320;DHT22;5715;48.234;14.320;2023-03-21T15:46:46;16.70;99.90
11320;DHT22;5715;48.234;14.320;2023-03-21T15:49:39;16.50;99.90
11320;DHT22;5715;48.234;14.320;2023-03-21T15:52:27;16.30;99.90
11320;DHT22;5715;48.234;14.320;2023-03-21T15:55:42;16.00;99.90
11320;DHT22;5715;48.234;14.320;2023-03-21T15:58:36;15.90;99.90
11320;DHT22;5715;48.234;14.320;2023-03-21T16:01:31;15.80;99.90
11320;DHT22;5715;48.234;14.320;2023-03-21T16:04:25;15.70;99.90
11320;DHT22;5715;48.234;14.320;2023-03-21T16:07:14;15.60;99.90
11320;DHT22;5715;48.234;14.320;2023-03-21T16:10:03;15.40;99.90
11320;DHT22;5715;48.234;14.320;2023-03-21T16:12:51;15.30;99.90
11320;DHT22;5715;48.234;14.320;2023-03-21T16:15:39;15.10;99.90
11320;DHT22;5715;48.234;14.320;2023-03-21T16:18:27;15.10;99.90
11320;DHT22;5715;48.234;14.320;2023-03-21T16:21:17;15.00;99.90
11320;DHT22;5715;48.234;14.320;2023-03-21T16:24:07;15.10;99.90
11320;DHT22;5715;48.234;14.320;2023-03-21T16:26:57;15.10;99.90
11320;DHT22;5715;48.234;14.320;2023-03-21T16:29:45;15.10;99.90
11320;DHT22;5715;48.234;14.320;2023-03-21T16:32:33;15.10;99.90
11320;DHT22;5715;48.234;14.320;2023-03-21T16:35:20;15.00;99.90
11320;DHT22;5715;48.234;14.320;2023-03-21T16:38:12;14.90;99.90
11320;DHT22;5715;48.234;14.320;2023-03-21T16:41:00;14.80;99.90
11320;DHT22;5715;48.234;14.320;2023-03-21T16:43:50;14.60;99.90
11320;DHT22;5715;48.234;14.320;2023-03-21T16:46:38;14.40;99.90
11320;DHT22;5715;48.234;14.320;2023-03-21T16:49:26;14.30;99.90
11320;DHT22;5715;48.234;14.320;2023-03-21T16:52:14;14.10;99.90
11320;DHT22;5715;48.234;14.320;2023-03-21T16:55:02;13.80;99.90
11320;DHT22;5715;48.234;14.320;2023-03-21T16:57:50;13.70;99.90
11320;DHT22;5715;48.234;14.320;2023-03-21T17:00:38;13.50;99.90
11320;DHT22;5715;48.234;14.320;2023-03-21T17:03:26;13.30;99.90
11320;DHT22;5715;48.234;14.320;2023-03-21T17:06:16;13.10;99.90
11320;DHT22;5715;48.234;14.320;2023-03-21T17:09:05;13.00;99.90
11320;DHT22;5715;48.234;14.320;2023-03-21T17:11:52;12.80;99.90
11320;DHT22;5715;48.234;14.320;2023-03-21T17:14:41;12.70;99.90
11320;DHT22;5715;48.234;14.320;2023-03-21T17:17:30;12.60;99.90
11320;DHT22;5715;48.234;14.320;2023-03-21T17:20:25;12.50;99.90
11320;DHT22;5715;48.234;14.320;2023-03-21T17:23:17;12.40;99.90
11320;DHT22;5715;48.234;14.320;2023-03-21T17:26:05;12.40;99.90
11320;DHT22;5715;48.234;14.320;2023-03-21T17:28:56;12.30;99.90
11320;DHT22;5715;48.234;14.320;2023-03-21T17:31:44;12.20;99.90
11320;DHT22;5715;48.234;14.320;2023-03-21T17:34:33;12.00;99.90
11320;DHT22;5715;48.234;14.320;2023-03-21T17:37:20;11.80;99.90
11320;DHT22;5715;48.234;14.320;2023-03-21T17:40:12;11.70;99.90
11320;DHT22;5715;48.234;14.320;2023-03-21T17:42:59;11.50;99.90
11320;DHT22;5715;48.234;14.320;2023-03-21T17:45:47;11.30;99.90
11320;DHT22;5715;48.234;14.320;2023-03-21T17:48:35;11.20;99.90
11320;DHT22;5715;48.234;14.320;2023-03-21T17:51:23;11.00;99.90
11320;DHT22;5715;48.234;14.320;2023-03-21T17:54:16;10.90;99.90
11320;DHT22;5715;48.234;14.320;2023-03-21T17:57:04;10.80;99.90
11320;DHT22;5715;48.234;14.320;2023-03-21T17:59:51;10.60;99.90
11320;DHT22;5715;48.234;14.320;2023-03-21T18:02:39;10.50;99.90
11320;DHT22;5715;48.234;14.320;2023-03-21T18:05:27;10.40;99.90
11320;DHT22;5715;48.234;14.320;2023-03-21T18:08:14;10.40;99.90
11320;DHT22;5715;48.234;14.320;2023-03-21T18:11:02;10.30;99.90
11320;DHT22;5715;48.234;14.320;2023-03-21T18:13:50;10.10;99.90
11320;DHT22;5715;48.234;14.320;2023-03-21T18:16:56;10.10;99.90
11320;DHT22;5715;48.234;14.320;2023-03-21T18:19:44;9.90;99.90
11320;DHT22;5715;48.234;14.320;2023-03-21T18:22:32;9.80;99.90
11320;DHT22;5715;48.234;14.320;2023-03-21T18:25:20;9.80;99.90
11320;DHT22;5715;48.234;14.320;2023-03-21T18:28:07;9.70;99.90
11320;DHT22;5715;48.234;14.320;2023-03-21T18:30:58;9.60;99.90
11320;DHT22;5715;48.234;14.320;2023-03-21T18:33:58;9.40;99.90
11320;DHT22;5715;48.234;14.320;2023-03-21T18:36:45;9.30;99.90
11320;DHT22;5715;48.234;14.320;2023-03-21T18:39:38;9.20;99.90
11320;DHT22;5715;48.234;14.320;2023-03-21T18:42:26;9.10;99.90
11320;DHT22;5715;48.234;14.320;2023-03-21T18:45:17;9.00;99.90
11320;DHT22;5715;48.234;14.320;2023-03-21T18:48:04;8.90;99.90
11320;DHT22;5715;48.234;14.320;2023-03-21T18:50:52;8.80;99.90
11320;DHT22;5715;48.234;14.320;2023-03-21T18:53:42;8.80;99.90
11320;DHT22;5715;48.234;14.320;2023-03-21T18:56:30;8.70;99.90
11320;DHT22;5715;48.234;14.320;2023-03-21T18:59:38;8.60;99.90
11320;DHT22;5715;48.234;14.320;2023-03-21T19:02:26;8.50;99.90
11320;DHT22;5715;48.234;14.320;2023-03-21T19:05:19;8.50;99.90
11320;DHT22;5715;48.234;14.320;2023-03-21T19:08:09;8.40;99.90
11320;DHT22;5715;48.234;14.320;2023-03-21T19:10:57;8.40;99.90
11320;DHT22;5715;48.234;14.320;2023-03-21T19:13:51;8.40;99.90
11320;DHT22;5715;48.234;14.320;2023-03-21T19:16:40;8.40;99.90
11320;DHT22;5715;48.234;14.320;2023-03-21T19:19:47;8.30;99.90
11320;DHT22;5715;48.234;14.320;2023-03-21T19:22:35;8.30;99.90
11320;DHT22;5715;48.234;14.320;2023-03-21T19:25:22;8.20;99.90
11320;DHT22;5715;48.234;14.320;2023-03-21T19:28:10;8.20;99.90
11320;DHT22;5715;48.234;14.320;2023-03-21T19:31:05;8.10;99.90
11320;DHT22;5715;48.234;14.320;2023-03-21T19:33:54;8.10;99.90
11320;DHT22;5715;48.234;14.320;2023-03-21T19:36:42;8.00;99.90
11320;DHT22;5715;48.234;14.320;2023-03-21T19:39:32;8.00;99.90
11320;DHT22;5715;48.234;14.320;2023-03-21T19:42:20;8.00;99.90
11320;DHT22;5715;48.234;14.320;2023-03-21T19:45:09;7.90;99.90
11320;DHT22;5715;48.234;14.320;2023-03-21T19:47:57;7.90;99.90
11320;DHT22;5715;48.234;14.320;2023-03-21T19:50:45;7.90;99.90
11320;DHT22;5715;48.234;14.320;2023-03-21T19:53:52;7.90;99.90
11320;DHT22;5715;48.234;14.320;2023-03-21T19:56:40;7.80;99.90